sensor_id;sensor_type;location;lat;lon;timestamp;temperature;humidity
53711;DHT22;39605;52.704;6.752;2023-04-16T00:00:19;8.80;99.90
53711;DHT22;39605;52.704;6.752;2023-04-16T00:02:44;8.80;99.90
53711;DHT22;39605;52.704;6.752;2023-04-16T00:05:10;8.80;99.90
53711;DHT22;39605;52.704;6.752;2023-04-16T00:07:36;8.80;99.90
53711;DHT22;39605;52.704;6.752;2023-04-16T00:10:01;8.80;99.90
53711;DHT22;39605;52.704;6.752;2023-04-16T00:12:27;8.80;99.90
53711;DHT22;39605;52.704;6.752;2023-04-16T00:14:53;8.80;99.90
53711;DHT22;39605;52.704;6.752;2023-04-16T00:17:19;8.90;99.90
53711;DHT22;39605;52.704;6.752;2023-04-16T00:19:44;8.80;99.90
53711;DHT22;39605;52.704;6.752;2023-04-16T00:22:10;8.80;99.90
53711;DHT22;39605;52.704;6.752;2023-04-16T00:24:36;8.80;99.90
53711;DHT22;39605;52.704;6.752;2023-04-16T00:27:01;8.80;99.90
53711;DHT22;39605;52.704;6.752;2023-04-16T00:29:27;8.80;99.90
53711;DHT22;39605;52.704;6.752;2023-04-16T00:31:55;8.80;99.90
53711;DHT22;39605;52.704;6.752;2023-04-16T00:34:21;8.80;99.90
53711;DHT22;39605;52.704;6.752;2023-04-16T00:36:49;8.80;99.90
53711;DHT22;39605;52.704;6.752;2023-04-16T00:39:14;8.80;99.90
53711;DHT22;39605;52.704;6.752;2023-04-16T00:41:43;8.80;99.90
53711;DHT22;39605;52.704;6.752;2023-04-16T00:44:08;8.80;99.90
53711;DHT22;39605;52.704;6.752;2023-04-16T00:46:35;8.80;99.90
53711;DHT22;39605;52.704;6.752;2023-04-16T00:49:02;8.80;99.90
53711;DHT22;39605;52.704;6.752;2023-04-16T00:51:28;8.80;99.90
53711;DHT22;39605;52.704;6.752;2023-04-16T00:53:56;8.80;99.90
53711;DHT22;39605;52.704;6.752;2023-04-16T00:56:23;8.80;99.90
53711;DHT22;39605;52.704;6.752;2023-04-16T00:58:49;8.80;99.90
53711;DHT22;39605;52.704;6.752;2023-04-16T01:01:15;8.80;99.90
53711;DHT22;39605;52.704;6.752;2023-04-16T01:03:46;8.90;99.90
53711;DHT22;39605;52.704;6.752;2023-04-16T01:06:12;8.80;99.90
53711;DHT22;39605;52.704;6.752;2023-04-16T01:08:38;8.90;99.90
53711;DHT22;39605;52.704;6.752;2023-04-16T01:11:04;8.90;99.90
53711;DHT22;39605;52.704;6.752;2023-04-16T01:13:30;8.90;99.90
53711;DHT22;39605;52.704;6.752;2023-04-16T01:15:56;8.80;99.90
53711;DHT22;39605;52.704;6.752;2023-04-16T01:18:22;8.90;99.90
53711;DHT22;39605;52.704;6.752;2023-04-16T01:20:49;8.90;99.90
53711;DHT22;39605;52.704;6.752;2023-04-16T01:23:18;8.80;99.90
53711;DHT22;39605;52.704;6.752;2023-04-16T01:25:45;8.80;99.90
53711;DHT22;39605;52.704;6.752;2023-04-16T01:28:11;8.80;99.90
53711;DHT22;39605;52.704;6.752;2023-04-16T01:30:37;8.80;99.90
53711;DHT22;39605;52.704;6.752;2023-04-16T01:33:03;8.80;99.90
53711;DHT22;39605;52.704;6.752;2023-04-16T01:35:28;8.80;99.90
53711;DHT22;39605;52.704;6.752;2023-04-16T01:37:54;8.80;99.90
53711;DHT22;39605;52.704;6.752;2023-04-16T01:40:20;8.80;99.90
53711;DHT22;39605;52.704;6.752;2023-04-16T01:42:46;8.80;99.90
53711;DHT22;39605;52.704;6.752;2023-04-16T01:45:11;8.80;99.90
53711;DHT22;39605;52.704;6.752;2023-04-16T01:47:37;8.80;99.90
53711;DHT22;39605;52.704;6.752;2023-04-16T01:50:04;8.80;99.90
53711;DHT22;39605;52.704;6.752;2023-04-16T01:52:30;8.80;99.90
53711;DHT22;39605;52.704;6.752;2023-04-16T01:54:56;8.80;99.90
53711;DHT22;39605;52.704;6.752;2023-04-16T01:57:22;8.80;99.90
53711;DHT22;39605;52.704;6.752;2023-04-16T01:59:47;8.80;99.90
53711;DHT22;39605;52.704;6.752;2023-04-16T02:02:14;8.80;99.90
53711;DHT22;39605;52.704;6.752;2023-04-16T02:04:42;8.80;99.90
53711;DHT22;39605;52.704;6.752;2023-04-16T02:07:09;8.80;99.90
53711;DHT22;39605;52.704;6.752;2023-04-16T02:09:36;8.80;99.90
53711;DHT22;39605;52.704;6.752;2023-04-16T02:12:02;8.80;99.90
53711;DHT22;39605;52.704;6.752;2023-04-16T02:14:29;8.80;99.90
53711;DHT22;39605;52.704;6.752;2023-04-16T02:16:55;8.80;99.90
53711;DHT22;39605;52.704;6.752;2023-04-16T02:19:21;8.80;99.90
53711;DHT22;39605;52.704;6.752;2023-04-16T02:21:47;8.80;99.90
53711;DHT22;39605;52.704;6.752;2023-04-16T02:24:13;8.50;99.90
53711;DHT22;39605;52.704;6.752;2023-04-16T02:26:40;8.70;99.90
53711;DHT22;39605;52.704;6.752;2023-04-16T02:29:05;8.70;99.90
53711;DHT22;39605;52.704;6.752;2023-04-16T02:31:31;8.70;99.90
53711;DHT22;39605;52.704;6.752;2023-04-16T02:33:57;8.70;99.90
53711;DHT22;39605;52.704;6.752;2023-04-16T02:36:23;8.70;99.90
53711;DHT22;39605;52.704;6.752;2023-04-16T02:38:49;8.70;99.90
53711;DHT22;39605;52.704;6.752;2023-04-16T02:41:14;8.70;99.90
53711;DHT22;39605;52.704;6.752;2023-04-16T02:43:40;8.70;99.90
53711;DHT22;39605;52.704;6.752;2023-04-16T02:46:06;8.60;99.90
53711;DHT22;39605;52.704;6.752;2023-04-16T02:48:31;8.60;99.90
53711;DHT22;39605;52.704;6.752;2023-04-16T02:50:57;8.60;99.90
53711;DHT22;39605;52.704;6.752;2023-04-16T02:53:23;8.60;99.90
53711;DHT22;39605;52.704;6.752;2023-04-16T02:55:50;8.60;99.90
53711;DHT22;39605;52.704;6.752;2023-04-16T02:58:23;8.60;99.90
53711;DHT22;39605;52.704;6.752;2023-04-16T03:00:50;8.60;99.90
53711;DHT22;39605;52.704;6.752;2023-04-16T03:03:16;8.50;99.90
53711;DHT22;39605;52.704;6.752;2023-04-16T03:05:42;8.60;99.90
53711;DHT22;39605;52.704;6.752;2023-04-16T03:08:09;8.60;99.90
53711;DHT22;39605;52.704;6.752;2023-04-16T03:10:35;8.60;99.90
53711;DHT22;39605;52.704;6.752;2023-04-16T03:13:02;8.60;99.90
53711;DHT22;39605;52.704;6.752;2023-04-16T03:15:28;8.60;99.90
53711;DHT22;39605;52.704;6.752;2023-04-16T03:17:55;8.60;99.90
53711;DHT22;39605;52.704;6.752;2023-04-16T03:20:20;8.50;99.90
53711;DHT22;39605;52.704;6.752;2023-04-16T03:22:46;8.50;99.90
53711;DHT22;39605;52.704;6.752;2023-04-16T03:25:12;8.50;99.90
53711;DHT22;39605;52.704;6.752;2023-04-16T03:27:38;8.50;99.90
53711;DHT22;39605;52.704;6.752;2023-04-16T03:30:10;8.50;99.90
53711;DHT22;39605;52.704;6.752;2023-04-16T03:32:35;8.50;99.90
53711;DHT22;39605;52.704;6.752;2023-04-16T03:35:03;8.50;99.90
53711;DHT22;39605;52.704;6.752;2023-04-16T03:37:29;8.50;99.90
53711;DHT22;39605;52.704;6.752;2023-04-16T03:39:55;8.50;99.90
53711;DHT22;39605;52.704;6.752;2023-04-16T03:42:20;8.40;99.90
53711;DHT22;39605;52.704;6.752;2023-04-16T03:44:46;8.40;99.90
53711;DHT22;39605;52.704;6.752;2023-04-16T03:47:12;8.40;99.90
53711;DHT22;39605;52.704;6.752;2023-04-16T03:49:38;8.40;99.90
53711;DHT22;39605;52.704;6.752;2023-04-16T03:52:03;8.40;99.90
53711;DHT22;39605;52.704;6.752;2023-04-16T03:54:29;8.40;99.90
53711;DHT22;39605;52.704;6.752;2023-04-16T03:56:55;8.40;99.90
53711;DHT22;39605;52.704;6.752;2023-04-16T03:59:21;8.40;99.90
53711;DHT22;39605;52.704;6.752;2023-04-16T04:01:47;8.40;99.90
53711;DHT22;39605;52.704;6.752;2023-04-16T04:04:13;8.40;99.90
53711;DHT22;39605;52.704;6.752;2023-04-16T04:06:39;8.40;99.90
53711;DHT22;39605;52.704;6.752;2023-04-16T04:09:05;8.40;99.90
53711;DHT22;39605;52.704;6.752;2023-04-16T04:11:31;8.40;99.90
53711;DHT22;39605;52.704;6.752;2023-04-16T04:13:57;8.40;99.90
53711;DHT22;39605;52.704;6.752;2023-04-16T04:16:23;8.40;99.90
53711;DHT22;39605;52.704;6.752;2023-04-16T04:18:49;8.40;99.90
53711;DHT22;39605;52.704;6.752;2023-04-16T04:21:15;8.40;99.90
53711;DHT22;39605;52.704;6.752;2023-04-16T04:23:41;8.40;99.90
53711;DHT22;39605;52.704;6.752;2023-04-16T04:26:07;8.50;99.90
53711;DHT22;39605;52.704;6.752;2023-04-16T04:28:33;8.40;99.90
53711;DHT22;39605;52.704;6.752;2023-04-16T04:31:00;8.40;99.90
53711;DHT22;39605;52.704;6.752;2023-04-16T04:33:26;8.40;99.90
53711;DHT22;39605;52.704;6.752;2023-04-16T04:35:53;8.40;99.90
53711;DHT22;39605;52.704;6.752;2023-04-16T04:38:19;8.60;99.90
53711;DHT22;39605;52.704;6.752;2023-04-16T04:40:50;8.40;99.90
53711;DHT22;39605;52.704;6.752;2023-04-16T04:43:16;8.40;99.90
53711;DHT22;39605;52.704;6.752;2023-04-16T04:45:41;8.30;99.90
53711;DHT22;39605;52.704;6.752;2023-04-16T04:48:07;8.40;99.90
53711;DHT22;39605;52.704;6.752;2023-04-16T04:50:33;8.40;99.90
53711;DHT22;39605;52.704;6.752;2023-04-16T04:52:59;8.40;99.90
53711;DHT22;39605;52.704;6.752;2023-04-16T04:55:24;8.40;99.90
53711;DHT22;39605;52.704;6.752;2023-04-16T04:57:50;8.40;99.90
53711;DHT22;39605;52.704;6.752;2023-04-16T05:00:16;8.70;99.90
53711;DHT22;39605;52.704;6.752;2023-04-16T05:02:42;8.40;99.90
53711;DHT22;39605;52.704;6.752;2023-04-16T05:05:07;8.40;99.90
53711;DHT22;39605;52.704;6.752;2023-04-16T05:07:33;8.40;99.90
53711;DHT22;39605;52.704;6.752;2023-04-16T05:09:59;8.40;99.90
53711;DHT22;39605;52.704;6.752;2023-04-16T05:12:25;8.40;99.90
53711;DHT22;39605;52.704;6.752;2023-04-16T05:14:51;8.40;99.90
53711;DHT22;39605;52.704;6.752;2023-04-16T05:17:17;8.40;99.90
53711;DHT22;39605;52.704;6.752;2023-04-16T05:19:42;8.40;99.90
53711;DHT22;39605;52.704;6.752;2023-04-16T05:22:08;8.40;99.90
53711;DHT22;39605;52.704;6.752;2023-04-16T05:24:34;8.50;99.90
53711;DHT22;39605;52.704;6.752;2023-04-16T05:27:00;8.50;99.90
53711;DHT22;39605;52.704;6.752;2023-04-16T05:29:25;8.50;99.90
53711;DHT22;39605;52.704;6.752;2023-04-16T05:31:51;8.50;99.90
53711;DHT22;39605;52.704;6.752;2023-04-16T05:34:17;8.50;99.90
53711;DHT22;39605;52.704;6.752;2023-04-16T05:37:59;8.60;99.90
53711;DHT22;39605;52.704;6.752;2023-04-16T05:40:29;8.60;99.90
53711;DHT22;39605;52.704;6.752;2023-04-16T05:42:55;8.60;99.90
53711;DHT22;39605;52.704;6.752;2023-04-16T05:45:20;8.70;99.90
53711;DHT22;39605;52.704;6.752;2023-04-16T05:47:46;8.70;99.90
53711;DHT22;39605;52.704;6.752;2023-04-16T05:50:12;8.70;99.90
53711;DHT22;39605;52.704;6.752;2023-04-16T05:52:38;8.70;99.90
53711;DHT22;39605;52.704;6.752;2023-04-16T05:55:04;8.80;99.90
53711;DHT22;39605;52.704;6.752;2023-04-16T05:57:31;8.80;99.90
53711;DHT22;39605;52.704;6.752;2023-04-16T05:59:57;8.80;99.90
53711;DHT22;39605;52.704;6.752;2023-04-16T06:02:23;8.80;99.90
53711;DHT22;39605;52.704;6.752;2023-04-16T06:04:52;8.80;99.90
53711;DHT22;39605;52.704;6.752;2023-04-16T06:07:18;8.70;99.90
53711;DHT22;39605;52.704;6.752;2023-04-16T06:09:46;8.70;99.90
53711;DHT22;39605;52.704;6.752;2023-04-16T06:12:12;8.80;99.90
53711;DHT22;39605;52.704;6.752;2023-04-16T06:14:37;8.70;99.90
53711;DHT22;39605;52.704;6.752;2023-04-16T06:17:03;8.80;99.90
53711;DHT22;39605;52.704;6.752;2023-04-16T06:19:29;8.80;99.90
53711;DHT22;39605;52.704;6.752;2023-04-16T06:21:57;8.80;99.90
53711;DHT22;39605;52.704;6.752;2023-04-16T06:24:22;8.90;99.90
53711;DHT22;39605;52.704;6.752;2023-04-16T06:26:48;8.90;99.90
53711;DHT22;39605;52.704;6.752;2023-04-16T06:29:16;9.00;99.90
53711;DHT22;39605;52.704;6.752;2023-04-16T06:31:42;9.00;99.90
53711;DHT22;39605;52.704;6.752;2023-04-16T06:34:08;9.10;99.90
53711;DHT22;39605;52.704;6.752;2023-04-16T06:36:34;9.10;99.90
53711;DHT22;39605;52.704;6.752;2023-04-16T06:39:02;9.20;99.90
53711;DHT22;39605;52.704;6.752;2023-04-16T06:41:27;9.20;99.90
53711;DHT22;39605;52.704;6.752;2023-04-16T06:43:53;9.20;99.90
53711;DHT22;39605;52.704;6.752;2023-04-16T06:46:19;9.20;99.90
53711;DHT22;39605;52.704;6.752;2023-04-16T06:48:45;9.30;99.90
53711;DHT22;39605;52.704;6.752;2023-04-16T06:51:10;9.30;99.90
53711;DHT22;39605;52.704;6.752;2023-04-16T06:53:37;9.40;99.90
53711;DHT22;39605;52.704;6.752;2023-04-16T06:56:03;9.40;99.90
53711;DHT22;39605;52.704;6.752;2023-04-16T06:58:29;9.50;99.90
53711;DHT22;39605;52.704;6.752;2023-04-16T07:00:57;9.60;99.90
53711;DHT22;39605;52.704;6.752;2023-04-16T07:03:23;9.60;99.90
53711;DHT22;39605;52.704;6.752;2023-04-16T07:05:49;9.60;99.90
53711;DHT22;39605;52.704;6.752;2023-04-16T07:08:15;9.70;99.90
53711;DHT22;39605;52.704;6.752;2023-04-16T07:10:41;9.70;99.90
53711;DHT22;39605;52.704;6.752;2023-04-16T07:13:07;9.80;99.90
53711;DHT22;39605;52.704;6.752;2023-04-16T07:15:33;9.80;99.90
53711;DHT22;39605;52.704;6.752;2023-04-16T07:17:58;9.90;99.90
53711;DHT22;39605;52.704;6.752;2023-04-16T07:20:24;9.90;99.90
53711;DHT22;39605;52.704;6.752;2023-04-16T07:22:50;9.90;99.90
53711;DHT22;39605;52.704;6.752;2023-04-16T07:25:16;10.00;99.90
53711;DHT22;39605;52.704;6.752;2023-04-16T07:27:42;10.00;99.90
53711;DHT22;39605;52.704;6.752;2023-04-16T07:30:10;10.10;99.90
53711;DHT22;39605;52.704;6.752;2023-04-16T07:32:36;10.10;99.90
53711;DHT22;39605;52.704;6.752;2023-04-16T07:35:02;10.10;99.90
53711;DHT22;39605;52.704;6.752;2023-04-16T07:37:28;10.10;99.90
53711;DHT22;39605;52.704;6.752;2023-04-16T07:39:54;10.10;99.90
53711;DHT22;39605;52.704;6.752;2023-04-16T07:42:22;10.20;99.90
53711;DHT22;39605;52.704;6.752;2023-04-16T07:44:48;10.20;99.90
53711;DHT22;39605;52.704;6.752;2023-04-16T07:47:13;10.20;99.90
53711;DHT22;39605;52.704;6.752;2023-04-16T07:49:39;10.20;99.90
53711;DHT22;39605;52.704;6.752;2023-04-16T07:52:05;10.20;99.90
53711;DHT22;39605;52.704;6.752;2023-04-16T07:54:31;10.20;99.90
53711;DHT22;39605;52.704;6.752;2023-04-16T07:56:56;10.20;99.90
53711;DHT22;39605;52.704;6.752;2023-04-16T07:59:22;10.20;99.90
53711;DHT22;39605;52.704;6.752;2023-04-16T08:01:48;10.20;99.90
53711;DHT22;39605;52.704;6.752;2023-04-16T08:04:14;10.30;99.90
53711;DHT22;39605;52.704;6.752;2023-04-16T08:06:46;10.30;99.90
53711;DHT22;39605;52.704;6.752;2023-04-16T08:09:12;10.30;99.90
53711;DHT22;39605;52.704;6.752;2023-04-16T08:11:38;10.30;99.90
53711;DHT22;39605;52.704;6.752;2023-04-16T08:14:10;10.30;99.90
53711;DHT22;39605;52.704;6.752;2023-04-16T08:16:35;10.40;99.90
53711;DHT22;39605;52.704;6.752;2023-04-16T08:19:03;10.40;99.90
53711;DHT22;39605;52.704;6.752;2023-04-16T08:21:29;10.40;99.90
53711;DHT22;39605;52.704;6.752;2023-04-16T08:23:56;10.50;99.90
53711;DHT22;39605;52.704;6.752;2023-04-16T08:26:21;10.70;99.90
53711;DHT22;39605;52.704;6.752;2023-04-16T08:28:50;10.70;99.90
53711;DHT22;39605;52.704;6.752;2023-04-16T08:31:16;10.70;99.90
53711;DHT22;39605;52.704;6.752;2023-04-16T08:33:45;10.80;99.90
53711;DHT22;39605;52.704;6.752;2023-04-16T08:36:10;10.90;99.90
53711;DHT22;39605;52.704;6.752;2023-04-16T08:38:36;11.00;99.90
53711;DHT22;39605;52.704;6.752;2023-04-16T08:41:05;11.00;99.90
53711;DHT22;39605;52.704;6.752;2023-04-16T08:43:37;11.10;99.90
53711;DHT22;39605;52.704;6.752;2023-04-16T08:46:11;11.20;99.90
53711;DHT22;39605;52.704;6.752;2023-04-16T08:48:37;11.30;99.90
53711;DHT22;39605;52.704;6.752;2023-04-16T08:51:10;11.40;99.90
53711;DHT22;39605;52.704;6.752;2023-04-16T08:53:48;11.50;99.90
53711;DHT22;39605;52.704;6.752;2023-04-16T08:56:14;11.70;99.90
53711;DHT22;39605;52.704;6.752;2023-04-16T08:58:42;11.80;99.90
53711;DHT22;39605;52.704;6.752;2023-04-16T09:01:08;11.90;99.90
53711;DHT22;39605;52.704;6.752;2023-04-16T09:03:38;12.10;99.90
53711;DHT22;39605;52.704;6.752;2023-04-16T09:06:06;12.20;98.90
53711;DHT22;39605;52.704;6.752;2023-04-16T09:08:33;12.30;99.70
53711;DHT22;39605;52.704;6.752;2023-04-16T09:11:00;12.40;98.60
53711;DHT22;39605;52.704;6.752;2023-04-16T09:13:27;12.40;98.60
53711;DHT22;39605;52.704;6.752;2023-04-16T09:15:53;12.60;98.50
53711;DHT22;39605;52.704;6.752;2023-04-16T09:18:19;12.80;98.80
53711;DHT22;39605;52.704;6.752;2023-04-16T09:20:47;12.80;97.80
53711;DHT22;39605;52.704;6.752;2023-04-16T09:23:13;13.00;96.90
53711;DHT22;39605;52.704;6.752;2023-04-16T09:25:39;13.10;96.90
53711;DHT22;39605;52.704;6.752;2023-04-16T09:28:04;13.30;96.40
53711;DHT22;39605;52.704;6.752;2023-04-16T09:30:30;13.50;95.70
53711;DHT22;39605;52.704;6.752;2023-04-16T09:35:47;13.90;94.90
53711;DHT22;39605;52.704;6.752;2023-04-16T09:38:13;14.00;92.90
53711;DHT22;39605;52.704;6.752;2023-04-16T09:40:39;14.10;91.20
53711;DHT22;39605;52.704;6.752;2023-04-16T09:43:13;14.30;93.80
53711;DHT22;39605;52.704;6.752;2023-04-16T09:45:53;14.40;92.00
53711;DHT22;39605;52.704;6.752;2023-04-16T09:48:29;14.60;92.70
53711;DHT22;39605;52.704;6.752;2023-04-16T09:50:56;14.50;91.10
53711;DHT22;39605;52.704;6.752;2023-04-16T09:53:29;14.50;88.00
53711;DHT22;39605;52.704;6.752;2023-04-16T09:55:59;14.40;90.30
53711;DHT22;39605;52.704;6.752;2023-04-16T09:58:26;14.40;91.40
53711;DHT22;39605;52.704;6.752;2023-04-16T10:01:04;14.40;91.90
53711;DHT22;39605;52.704;6.752;2023-04-16T10:03:36;14.30;91.60
53711;DHT22;39605;52.704;6.752;2023-04-16T10:06:19;14.20;77.90
53711;DHT22;39605;52.704;6.752;2023-04-16T10:09:06;14.20;56.60
53711;DHT22;39605;52.704;6.752;2023-04-16T10:11:33;14.10;58.10
53711;DHT22;39605;52.704;6.752;2023-04-16T10:13:59;14.10;59.60
53711;DHT22;39605;52.704;6.752;2023-04-16T10:16:25;14.00;49.80
53711;DHT22;39605;52.704;6.752;2023-04-16T10:18:52;14.00;60.40
53711;DHT22;39605;52.704;6.752;2023-04-16T10:21:18;14.00;56.40
53711;DHT22;39605;52.704;6.752;2023-04-16T10:23:44;14.10;73.50
53711;DHT22;39605;52.704;6.752;2023-04-16T10:26:10;14.10;61.20
53711;DHT22;39605;52.704;6.752;2023-04-16T10:28:44;14.20;58.00
53711;DHT22;39605;52.704;6.752;2023-04-16T10:31:11;14.30;46.90
53711;DHT22;39605;52.704;6.752;2023-04-16T10:33:41;14.30;54.30
53711;DHT22;39605;52.704;6.752;2023-04-16T10:36:10;14.30;57.60
53711;DHT22;39605;52.704;6.752;2023-04-16T10:38:38;14.30;42.40
53711;DHT22;39605;52.704;6.752;2023-04-16T10:41:06;14.50;43.50
53711;DHT22;39605;52.704;6.752;2023-04-16T10:43:39;14.50;44.60
53711;DHT22;39605;52.704;6.752;2023-04-16T10:46:31;14.60;40.40
53711;DHT22;39605;52.704;6.752;2023-04-16T10:49:19;14.50;39.50
53711;DHT22;39605;52.704;6.752;2023-04-16T10:51:56;14.50;34.80
53711;DHT22;39605;52.704;6.752;2023-04-16T10:54:28;14.70;41.60
53711;DHT22;39605;52.704;6.752;2023-04-16T10:57:08;14.90;38.30
53711;DHT22;39605;52.704;6.752;2023-04-16T10:59:36;15.00;39.00
53711;DHT22;39605;52.704;6.752;2023-04-16T11:02:07;15.20;32.10
53711;DHT22;39605;52.704;6.752;2023-04-16T11:04:38;15.30;20.60
53711;DHT22;39605;52.704;6.752;2023-04-16T11:12:20;16.10;20.00
53711;DHT22;39605;52.704;6.752;2023-04-16T11:17:40;16.30;23.60
53711;DHT22;39605;52.704;6.752;2023-04-16T11:22:42;16.30;1.00
53711;DHT22;39605;52.704;6.752;2023-04-16T11:25:09;16.40;1.00
53711;DHT22;39605;52.704;6.752;2023-04-16T11:27:35;16.40;1.00
53711;DHT22;39605;52.704;6.752;2023-04-16T11:30:03;16.40;3.40
53711;DHT22;39605;52.704;6.752;2023-04-16T11:32:33;16.40;1.00
53711;DHT22;39605;52.704;6.752;2023-04-16T11:35:01;16.40;1.00
53711;DHT22;39605;52.704;6.752;2023-04-16T11:37:36;16.30;1.00
53711;DHT22;39605;52.704;6.752;2023-04-16T11:40:04;16.20;1.00
53711;DHT22;39605;52.704;6.752;2023-04-16T11:42:35;15.90;1.00
53711;DHT22;39605;52.704;6.752;2023-04-16T11:45:06;15.70;1.00
53711;DHT22;39605;52.704;6.752;2023-04-16T11:47:50;15.50;1.00
53711;DHT22;39605;52.704;6.752;2023-04-16T11:50:21;15.50;1.00
53711;DHT22;39605;52.704;6.752;2023-04-16T11:52:48;15.50;8.00
53711;DHT22;39605;52.704;6.752;2023-04-16T11:55:14;15.40;1.00
53711;DHT22;39605;52.704;6.752;2023-04-16T11:57:40;15.40;9.90
53711;DHT22;39605;52.704;6.752;2023-04-16T12:00:06;15.30;15.60
53711;DHT22;39605;52.704;6.752;2023-04-16T12:02:40;15.20;26.20
53711;DHT22;39605;52.704;6.752;2023-04-16T12:07:51;15.20;11.00
53711;DHT22;39605;52.704;6.752;2023-04-16T12:10:17;15.10;9.00
53711;DHT22;39605;52.704;6.752;2023-04-16T12:12:42;15.20;22.30
53711;DHT22;39605;52.704;6.752;2023-04-16T12:15:08;15.20;23.60
53711;DHT22;39605;52.704;6.752;2023-04-16T12:17:35;15.20;56.90
53711;DHT22;39605;52.704;6.752;2023-04-16T12:20:02;15.20;16.80
53711;DHT22;39605;52.704;6.752;2023-04-16T12:22:32;15.20;17.80
53711;DHT22;39605;52.704;6.752;2023-04-16T12:25:12;15.20;29.40
53711;DHT22;39605;52.704;6.752;2023-04-16T12:27:46;15.30;15.00
53711;DHT22;39605;52.704;6.752;2023-04-16T12:30:14;15.20;15.80
53711;DHT22;39605;52.704;6.752;2023-04-16T12:32:41;15.30;31.90
53711;DHT22;39605;52.704;6.752;2023-04-16T12:35:09;15.30;25.80
53711;DHT22;39605;52.704;6.752;2023-04-16T12:37:35;15.30;24.60
53711;DHT22;39605;52.704;6.752;2023-04-16T12:40:01;15.40;43.10
53711;DHT22;39605;52.704;6.752;2023-04-16T12:42:29;15.50;14.50
53711;DHT22;39605;52.704;6.752;2023-04-16T12:45:01;15.50;14.80
53711;DHT22;39605;52.704;6.752;2023-04-16T12:47:27;15.80;15.50
53711;DHT22;39605;52.704;6.752;2023-04-16T12:49:56;16.00;14.10
53711;DHT22;39605;52.704;6.752;2023-04-16T12:52:23;16.00;1.00
53711;DHT22;39605;52.704;6.752;2023-04-16T12:54:49;16.10;1.00
53711;DHT22;39605;52.704;6.752;2023-04-16T12:57:15;16.30;1.00
53711;DHT22;39605;52.704;6.752;2023-04-16T12:59:41;16.50;1.00
53711;DHT22;39605;52.704;6.752;2023-04-16T13:02:07;16.60;1.00
53711;DHT22;39605;52.704;6.752;2023-04-16T13:04:33;16.50;1.00
53711;DHT22;39605;52.704;6.752;2023-04-16T13:06:59;16.30;1.00
53711;DHT22;39605;52.704;6.752;2023-04-16T13:09:25;16.10;1.00
53711;DHT22;39605;52.704;6.752;2023-04-16T13:11:51;15.90;1.00
53711;DHT22;39605;52.704;6.752;2023-04-16T13:14:17;15.80;1.00
53711;DHT22;39605;52.704;6.752;2023-04-16T13:16:43;15.60;1.00
53711;DHT22;39605;52.704;6.752;2023-04-16T13:19:09;15.50;1.00
53711;DHT22;39605;52.704;6.752;2023-04-16T13:21:35;15.40;1.00
53711;DHT22;39605;52.704;6.752;2023-04-16T13:24:01;15.40;2.50
53711;DHT22;39605;52.704;6.752;2023-04-16T13:26:26;15.60;8.20
53711;DHT22;39605;52.704;6.752;2023-04-16T13:28:52;15.70;1.00
53711;DHT22;39605;52.704;6.752;2023-04-16T13:31:19;15.90;4.10
53711;DHT22;39605;52.704;6.752;2023-04-16T13:33:46;16.30;1.00
53711;DHT22;39605;52.704;6.752;2023-04-16T13:36:15;16.60;1.00
53711;DHT22;39605;52.704;6.752;2023-04-16T13:38:41;16.80;1.00
53711;DHT22;39605;52.704;6.752;2023-04-16T13:41:07;16.80;1.00
53711;DHT22;39605;52.704;6.752;2023-04-16T13:43:33;16.70;1.00
53711;DHT22;39605;52.704;6.752;2023-04-16T13:45:58;16.60;1.00
53711;DHT22;39605;52.704;6.752;2023-04-16T13:48:25;16.50;1.00
53711;DHT22;39605;52.704;6.752;2023-04-16T13:50:52;16.30;1.00
53711;DHT22;39605;52.704;6.752;2023-04-16T13:53:18;16.10;1.00
53711;DHT22;39605;52.704;6.752;2023-04-16T13:55:44;16.00;1.00
53711;DHT22;39605;52.704;6.752;2023-04-16T13:58:09;16.00;1.00
53711;DHT22;39605;52.704;6.752;2023-04-16T14:00:36;16.00;1.00
53711;DHT22;39605;52.704;6.752;2023-04-16T14:03:02;16.00;1.00
53711;DHT22;39605;52.704;6.752;2023-04-16T14:05:30;16.10;1.00
53711;DHT22;39605;52.704;6.752;2023-04-16T14:07:56;16.20;1.00
53711;DHT22;39605;52.704;6.752;2023-04-16T14:10:22;16.30;1.00
53711;DHT22;39605;52.704;6.752;2023-04-16T14:12:47;16.30;1.00
53711;DHT22;39605;52.704;6.752;2023-04-16T14:15:13;16.30;1.00
53711;DHT22;39605;52.704;6.752;2023-04-16T14:17:42;16.30;1.00
53711;DHT22;39605;52.704;6.752;2023-04-16T14:20:12;16.20;1.00
53711;DHT22;39605;52.704;6.752;2023-04-16T14:22:40;16.20;1.00
53711;DHT22;39605;52.704;6.752;2023-04-16T14:25:08;16.10;1.00
53711;DHT22;39605;52.704;6.752;2023-04-16T14:27:34;16.10;1.00
53711;DHT22;39605;52.704;6.752;2023-04-16T14:30:00;16.10;1.00
53711;DHT22;39605;52.704;6.752;2023-04-16T14:32:26;16.10;1.00
53711;DHT22;39605;52.704;6.752;2023-04-16T14:35:03;16.00;1.00
53711;DHT22;39605;52.704;6.752;2023-04-16T14:37:35;16.00;1.00
53711;DHT22;39605;52.704;6.752;2023-04-16T14:40:24;15.90;1.00
53711;DHT22;39605;52.704;6.752;2023-04-16T14:43:06;15.90;1.00
53711;DHT22;39605;52.704;6.752;2023-04-16T14:51:47;15.80;5.80
53711;DHT22;39605;52.704;6.752;2023-04-16T14:54:36;15.70;44.60
53711;DHT22;39605;52.704;6.752;2023-04-16T15:01:06;15.80;59.20
53711;DHT22;39605;52.704;6.752;2023-04-16T15:03:51;15.80;65.50
53711;DHT22;39605;52.704;6.752;2023-04-16T15:09:36;15.80;35.60
53711;DHT22;39605;52.704;6.752;2023-04-16T15:12:15;15.70;64.70
53711;DHT22;39605;52.704;6.752;2023-04-16T15:14:40;15.70;27.80
53711;DHT22;39605;52.704;6.752;2023-04-16T15:17:07;15.70;15.50
53711;DHT22;39605;52.704;6.752;2023-04-16T15:19:33;15.80;1.00
53711;DHT22;39605;52.704;6.752;2023-04-16T15:21:59;15.70;7.20
53711;DHT22;39605;52.704;6.752;2023-04-16T15:24:27;15.80;41.00
53711;DHT22;39605;52.704;6.752;2023-04-16T15:26:53;15.80;62.70
53711;DHT22;39605;52.704;6.752;2023-04-16T15:29:19;15.70;53.90
53711;DHT22;39605;52.704;6.752;2023-04-16T15:31:45;15.70;56.70
53711;DHT22;39605;52.704;6.752;2023-04-16T15:34:12;15.70;18.30
53711;DHT22;39605;52.704;6.752;2023-04-16T15:36:37;15.70;16.30
53711;DHT22;39605;52.704;6.752;2023-04-16T15:39:03;15.80;28.60
53711;DHT22;39605;52.704;6.752;2023-04-16T15:41:29;15.90;60.30
53711;DHT22;39605;52.704;6.752;2023-04-16T15:43:56;15.90;69.90
53711;DHT22;39605;52.704;6.752;2023-04-16T15:46:22;15.90;91.90
53711;DHT22;39605;52.704;6.752;2023-04-16T15:48:47;16.00;68.50
53711;DHT22;39605;52.704;6.752;2023-04-16T15:51:13;15.90;83.70
53711;DHT22;39605;52.704;6.752;2023-04-16T15:53:41;15.90;11.60
53711;DHT22;39605;52.704;6.752;2023-04-16T15:56:09;15.90;22.40
53711;DHT22;39605;52.704;6.752;2023-04-16T15:58:35;15.90;43.50
53711;DHT22;39605;52.704;6.752;2023-04-16T16:01:00;15.80;42.90
53711;DHT22;39605;52.704;6.752;2023-04-16T16:03:28;15.80;43.30
53711;DHT22;39605;52.704;6.752;2023-04-16T16:05:54;15.70;36.00
53711;DHT22;39605;52.704;6.752;2023-04-16T16:08:20;15.70;33.30
53711;DHT22;39605;52.704;6.752;2023-04-16T16:10:45;15.70;33.30